sensor_id;sensor_type;location;lat;lon;timestamp;pressure;altitude;pressure_sealevel;temperature;humidity
42001;BME280;27689;48.390;10.856;2023-04-01T00:02:30;94882.28;;;7.86;95.23
42001;BME280;27689;48.390;10.856;2023-04-01T00:05:15;94883.09;;;7.86;95.68
42001;BME280;27689;48.390;10.856;2023-04-01T00:08:00;94895.16;;;7.95;95.67
42001;BME280;27689;48.390;10.856;2023-04-01T00:10:44;94880.66;;;7.93;95.31
42001;BME280;27689;48.390;10.856;2023-04-01T00:13:28;94878.19;;;7.91;96.05
42001;BME280;27689;48.390;10.856;2023-04-01T00:16:12;94879.84;;;7.92;96.36
42001;BME280;27689;48.390;10.856;2023-04-01T00:18:56;94874.28;;;7.87;96.85
42001;BME280;27689;48.390;10.856;2023-04-01T00:21:40;94889.16;;;8.11;94.99
42001;BME280;27689;48.390;10.856;2023-04-01T00:24:24;94876.09;;;8.03;94.47
42001;BME280;27689;48.390;10.856;2023-04-01T00:27:09;94881.16;;;7.96;94.98
42001;BME280;27689;48.390;10.856;2023-04-01T00:29:53;94889.13;;;7.95;95.15
42001;BME280;27689;48.390;10.856;2023-04-01T00:32:37;94887.03;;;8.06;94.40
42001;BME280;27689;48.390;10.856;2023-04-01T00:35:21;94884.06;;;7.93;94.94
42001;BME280;27689;48.390;10.856;2023-04-01T00:38:06;94887.84;;;7.99;94.94
42001;BME280;27689;48.390;10.856;2023-04-01T00:40:57;94884.56;;;7.97;94.90
42001;BME280;27689;48.390;10.856;2023-04-01T00:43:43;94879.53;;;8.11;94.07
42001;BME280;27689;48.390;10.856;2023-04-01T00:46:27;94874.00;;;7.98;94.14
42001;BME280;27689;48.390;10.856;2023-04-01T00:49:13;94877.06;;;8.02;93.73
42001;BME280;27689;48.390;10.856;2023-04-01T00:51:58;94881.97;;;8.05;93.54
42001;BME280;27689;48.390;10.856;2023-04-01T00:54:46;94884.72;;;7.95;94.24
42001;BME280;27689;48.390;10.856;2023-04-01T00:57:35;94892.25;;;8.06;92.96
42001;BME280;27689;48.390;10.856;2023-04-01T01:00:20;94876.75;;;7.97;93.13
42001;BME280;27689;48.390;10.856;2023-04-01T01:03:05;94875.47;;;8.01;93.10
42001;BME280;27689;48.390;10.856;2023-04-01T01:15:44;94867.81;;;8.16;91.85
42001;BME280;27689;48.390;10.856;2023-04-01T01:18:39;94864.53;;;8.05;92.23
42001;BME280;27689;48.390;10.856;2023-04-01T01:24:45;94852.94;;;7.92;93.82
42001;BME280;27689;48.390;10.856;2023-04-01T01:27:32;94875.91;;;7.88;94.25
42001;BME280;27689;48.390;10.856;2023-04-01T01:33:30;94862.53;;;7.75;95.04
42001;BME280;27689;48.390;10.856;2023-04-01T01:36:18;94858.47;;;7.89;94.27
42001;BME280;27689;48.390;10.856;2023-04-01T01:39:05;94858.97;;;7.92;93.71
42001;BME280;27689;48.390;10.856;2023-04-01T01:41:51;94854.44;;;7.86;94.29
42001;BME280;27689;48.390;10.856;2023-04-01T01:44:37;94844.78;;;7.87;93.77
42001;BME280;27689;48.390;10.856;2023-04-01T01:47:22;94846.59;;;7.86;93.46
42001;BME280;27689;48.390;10.856;2023-04-01T01:50:07;94853.56;;;7.77;94.17
42001;BME280;27689;48.390;10.856;2023-04-01T01:53:01;94851.78;;;7.70;95.03
42001;BME280;27689;48.390;10.856;2023-04-01T01:55:46;94854.72;;;7.67;95.09
42001;BME280;27689;48.390;10.856;2023-04-01T01:58:41;94851.63;;;7.71;94.86
42001;BME280;27689;48.390;10.856;2023-04-01T02:01:29;94854.22;;;7.63;94.80
42001;BME280;27689;48.390;10.856;2023-04-01T02:04:16;94855.66;;;7.58;95.54
42001;BME280;27689;48.390;10.856;2023-04-01T02:07:05;94851.75;;;7.62;95.34
42001;BME280;27689;48.390;10.856;2023-04-01T02:09:51;94854.31;;;7.46;96.44
42001;BME280;27689;48.390;10.856;2023-04-01T02:12:36;94863.44;;;7.50;96.02
42001;BME280;27689;48.390;10.856;2023-04-01T02:15:21;94861.50;;;7.52;95.92
42001;BME280;27689;48.390;10.856;2023-04-01T02:18:09;94854.97;;;7.48;96.14
42001;BME280;27689;48.390;10.856;2023-04-01T02:20:56;94866.56;;;7.53;96.33
42001;BME280;27689;48.390;10.856;2023-04-01T02:23:41;94869.28;;;7.43;96.29
42001;BME280;27689;48.390;10.856;2023-04-01T02:26:26;94872.25;;;7.49;96.62
42001;BME280;27689;48.390;10.856;2023-04-01T02:29:10;94874.19;;;7.47;96.52
42001;BME280;27689;48.390;10.856;2023-04-01T02:31:55;94870.09;;;7.36;97.21
42001;BME280;27689;48.390;10.856;2023-04-01T02:34:40;94867.50;;;7.36;96.96
42001;BME280;27689;48.390;10.856;2023-04-01T02:37:25;94879.03;;;7.33;97.32
42001;BME280;27689;48.390;10.856;2023-04-01T02:40:12;94883.41;;;7.33;97.38
42001;BME280;27689;48.390;10.856;2023-04-01T02:42:56;94885.38;;;7.31;97.74
42001;BME280;27689;48.390;10.856;2023-04-01T02:45:39;94876.72;;;7.22;98.17
42001;BME280;27689;48.390;10.856;2023-04-01T02:48:23;94878.34;;;7.23;98.20
42001;BME280;27689;48.390;10.856;2023-04-01T02:51:08;94873.44;;;7.20;97.76
42001;BME280;27689;48.390;10.856;2023-04-01T02:53:52;94881.88;;;7.14;98.61
42001;BME280;27689;48.390;10.856;2023-04-01T02:56:36;94888.84;;;7.05;98.87
42001;BME280;27689;48.390;10.856;2023-04-01T02:59:20;94889.84;;;7.13;97.94
42001;BME280;27689;48.390;10.856;2023-04-01T03:02:04;94890.03;;;7.11;98.07
42001;BME280;27689;48.390;10.856;2023-04-01T03:04:48;94887.88;;;7.06;98.39
42001;BME280;27689;48.390;10.856;2023-04-01T03:07:33;94898.75;;;7.02;98.81
42001;BME280;27689;48.390;10.856;2023-04-01T03:10:17;94893.53;;;7.02;98.41
42001;BME280;27689;48.390;10.856;2023-04-01T03:13:01;94893.59;;;7.10;97.92
42001;BME280;27689;48.390;10.856;2023-04-01T03:15:45;94898.22;;;6.98;98.25
42001;BME280;27689;48.390;10.856;2023-04-01T03:18:28;94902.81;;;6.96;98.36
42001;BME280;27689;48.390;10.856;2023-04-01T03:21:18;94901.84;;;6.97;98.18
42001;BME280;27689;48.390;10.856;2023-04-01T03:24:02;94907.78;;;6.90;98.66
42001;BME280;27689;48.390;10.856;2023-04-01T03:26:46;94914.66;;;6.99;97.71
42001;BME280;27689;48.390;10.856;2023-04-01T03:29:30;94911.47;;;7.05;96.84
42001;BME280;27689;48.390;10.856;2023-04-01T03:32:14;94914.53;;;7.00;97.06
42001;BME280;27689;48.390;10.856;2023-04-01T03:34:58;94909.16;;;7.02;97.18
42001;BME280;27689;48.390;10.856;2023-04-01T03:37:42;94911.75;;;7.02;97.23
42001;BME280;27689;48.390;10.856;2023-04-01T03:40:26;94924.28;;;6.98;97.45
42001;BME280;27689;48.390;10.856;2023-04-01T03:43:10;94915.34;;;7.01;96.79
42001;BME280;27689;48.390;10.856;2023-04-01T03:45:54;94916.81;;;7.03;96.99
42001;BME280;27689;48.390;10.856;2023-04-01T03:48:40;94908.31;;;6.93;97.75
42001;BME280;27689;48.390;10.856;2023-04-01T03:51:24;94916.44;;;6.98;97.60
42001;BME280;27689;48.390;10.856;2023-04-01T03:54:09;94927.09;;;7.05;96.75
42001;BME280;27689;48.390;10.856;2023-04-01T03:56:53;94908.84;;;7.05;97.07
42001;BME280;27689;48.390;10.856;2023-04-01T03:59:38;94917.38;;;7.15;96.40
42001;BME280;27689;48.390;10.856;2023-04-01T04:02:22;94905.59;;;7.03;97.56
42001;BME280;27689;48.390;10.856;2023-04-01T04:05:07;94921.38;;;7.01;97.98
42001;BME280;27689;48.390;10.856;2023-04-01T04:07:51;94914.28;;;7.12;98.20
42001;BME280;27689;48.390;10.856;2023-04-01T04:10:36;94916.66;;;7.05;98.88
42001;BME280;27689;48.390;10.856;2023-04-01T04:13:19;94917.63;;;7.04;99.05
42001;BME280;27689;48.390;10.856;2023-04-01T04:16:04;94913.69;;;7.00;99.73
42001;BME280;27689;48.390;10.856;2023-04-01T04:18:48;94914.84;;;6.97;100.00
42001;BME280;27689;48.390;10.856;2023-04-01T04:21:32;94913.41;;;7.03;100.00
42001;BME280;27689;48.390;10.856;2023-04-01T04:24:16;94923.97;;;7.01;100.00
42001;BME280;27689;48.390;10.856;2023-04-01T04:27:00;94920.53;;;7.01;100.00
42001;BME280;27689;48.390;10.856;2023-04-01T04:29:44;94919.63;;;6.84;100.00
42001;BME280;27689;48.390;10.856;2023-04-01T04:32:28;94907.59;;;6.83;100.00
42001;BME280;27689;48.390;10.856;2023-04-01T04:35:12;94919.44;;;6.78;100.00
42001;BME280;27689;48.390;10.856;2023-04-01T04:37:55;94914.56;;;6.83;100.00
42001;BME280;27689;48.390;10.856;2023-04-01T04:40:41;94911.63;;;6.78;100.00
42001;BME280;27689;48.390;10.856;2023-04-01T04:43:25;94909.19;;;6.76;100.00
42001;BME280;27689;48.390;10.856;2023-04-01T04:46:09;94909.22;;;6.84;100.00
42001;BME280;27689;48.390;10.856;2023-04-01T04:48:53;94914.13;;;6.87;100.00
42001;BME280;27689;48.390;10.856;2023-04-01T04:51:37;94911.00;;;6.84;100.00
42001;BME280;27689;48.390;10.856;2023-04-01T04:54:21;94910.38;;;6.82;100.00
42001;BME280;27689;48.390;10.856;2023-04-01T04:57:05;94918.81;;;6.84;100.00
42001;BME280;27689;48.390;10.856;2023-04-01T04:59:49;94913.16;;;6.88;100.00
42001;BME280;27689;48.390;10.856;2023-04-01T05:02:33;94906.16;;;6.89;100.00
42001;BME280;27689;48.390;10.856;2023-04-01T05:05:18;94908.81;;;6.97;100.00
42001;BME280;27689;48.390;10.856;2023-04-01T05:08:02;94899.72;;;7.01;100.00
42001;BME280;27689;48.390;10.856;2023-04-01T05:10:47;94907.38;;;7.02;100.00
42001;BME280;27689;48.390;10.856;2023-04-01T05:13:30;94905.28;;;7.06;100.00
42001;BME280;27689;48.390;10.856;2023-04-01T05:16:17;94909.06;;;7.12;100.00
42001;BME280;27689;48.390;10.856;2023-04-01T05:19:01;94899.47;;;7.12;100.00
42001;BME280;27689;48.390;10.856;2023-04-01T05:21:45;94906.47;;;7.12;100.00
42001;BME280;27689;48.390;10.856;2023-04-01T05:24:29;94902.38;;;7.09;100.00
42001;BME280;27689;48.390;10.856;2023-04-01T05:27:14;94910.22;;;7.17;100.00
42001;BME280;27689;48.390;10.856;2023-04-01T05:29:58;94907.47;;;7.19;100.00
42001;BME280;27689;48.390;10.856;2023-04-01T05:32:41;94908.59;;;7.16;100.00
42001;BME280;27689;48.390;10.856;2023-04-01T05:35:26;94908.28;;;7.19;100.00
42001;BME280;27689;48.390;10.856;2023-04-01T05:38:10;94909.06;;;7.12;100.00
42001;BME280;27689;48.390;10.856;2023-04-01T05:40:59;94915.13;;;7.20;100.00
42001;BME280;27689;48.390;10.856;2023-04-01T05:43:43;94915.72;;;7.14;100.00
42001;BME280;27689;48.390;10.856;2023-04-01T05:46:27;94919.50;;;7.20;99.94
42001;BME280;27689;48.390;10.856;2023-04-01T05:49:11;94913.34;;;7.21;99.61
42001;BME280;27689;48.390;10.856;2023-04-01T05:51:56;94915.78;;;7.22;100.00
42001;BME280;27689;48.390;10.856;2023-04-01T05:54:40;94912.72;;;7.27;99.19
42001;BME280;27689;48.390;10.856;2023-04-01T05:57:24;94905.16;;;7.16;99.57
42001;BME280;27689;48.390;10.856;2023-04-01T06:00:08;94914.31;;;7.20;99.80
42001;BME280;27689;48.390;10.856;2023-04-01T06:02:53;94915.41;;;7.17;99.42
42001;BME280;27689;48.390;10.856;2023-04-01T06:05:42;94915.97;;;7.29;98.32
42001;BME280;27689;48.390;10.856;2023-04-01T06:08:28;94916.44;;;7.24;98.62
42001;BME280;27689;48.390;10.856;2023-04-01T06:11:27;94920.53;;;7.27;98.39
42001;BME280;27689;48.390;10.856;2023-04-01T06:14:39;94918.78;;;7.35;98.81
42001;BME280;27689;48.390;10.856;2023-04-01T06:27:00;94903.22;;;7.60;96.63
42001;BME280;27689;48.390;10.856;2023-04-01T06:29:55;94911.59;;;7.71;95.35
42001;BME280;27689;48.390;10.856;2023-04-01T06:39:01;94924.00;;;8.02;93.78
42001;BME280;27689;48.390;10.856;2023-04-01T06:42:50;94919.13;;;8.07;91.79
42001;BME280;27689;48.390;10.856;2023-04-01T06:45:33;94903.97;;;8.02;91.24
42001;BME280;27689;48.390;10.856;2023-04-01T06:48:39;94932.34;;;8.05;91.03
42001;BME280;27689;48.390;10.856;2023-04-01T06:52:00;94927.13;;;8.05;91.88
42001;BME280;27689;48.390;10.856;2023-04-01T06:54:50;94926.97;;;8.07;92.77
42001;BME280;27689;48.390;10.856;2023-04-01T06:57:41;94926.03;;;8.16;90.95
42001;BME280;27689;48.390;10.856;2023-04-01T07:00:32;94921.94;;;8.22;90.54
42001;BME280;27689;48.390;10.856;2023-04-01T07:03:23;94928.31;;;8.35;90.00
42001;BME280;27689;48.390;10.856;2023-04-01T07:06:26;94927.19;;;8.38;89.31
42001;BME280;27689;48.390;10.856;2023-04-01T07:09:15;94924.91;;;8.51;88.84
42001;BME280;27689;48.390;10.856;2023-04-01T07:12:04;94920.03;;;8.56;87.32
42001;BME280;27689;48.390;10.856;2023-04-01T07:14:50;94913.81;;;8.49;85.49
42001;BME280;27689;48.390;10.856;2023-04-01T07:17:39;94929.50;;;8.57;85.48
42001;BME280;27689;48.390;10.856;2023-04-01T07:20:29;94915.91;;;8.62;85.23
42001;BME280;27689;48.390;10.856;2023-04-01T07:23:26;94913.31;;;8.70;84.82
42001;BME280;27689;48.390;10.856;2023-04-01T07:26:19;94918.69;;;8.76;84.70
42001;BME280;27689;48.390;10.856;2023-04-01T07:29:13;94909.53;;;8.80;83.89
42001;BME280;27689;48.390;10.856;2023-04-01T07:32:09;94911.19;;;8.81;84.09
42001;BME280;27689;48.390;10.856;2023-04-01T07:35:36;94928.66;;;8.81;83.46
42001;BME280;27689;48.390;10.856;2023-04-01T07:38:42;94914.63;;;8.74;83.41
42001;BME280;27689;48.390;10.856;2023-04-01T07:45:13;94915.28;;;8.68;83.13
42001;BME280;27689;48.390;10.856;2023-04-01T07:51:08;94931.75;;;8.76;83.68
42001;BME280;27689;48.390;10.856;2023-04-01T07:54:06;94922.47;;;8.66;83.41
42001;BME280;27689;48.390;10.856;2023-04-01T07:59:56;94936.63;;;8.79;83.11
42001;BME280;27689;48.390;10.856;2023-04-01T08:14:50;94923.91;;;9.01;81.99
42001;BME280;27689;48.390;10.856;2023-04-01T08:20:46;94915.03;;;9.18;80.63
42001;BME280;27689;48.390;10.856;2023-04-01T08:23:33;94917.13;;;9.31;80.55
42001;BME280;27689;48.390;10.856;2023-04-01T08:26:34;94929.66;;;9.35;79.64
42001;BME280;27689;48.390;10.856;2023-04-01T08:29:23;94918.97;;;9.53;79.84
42001;BME280;27689;48.390;10.856;2023-04-01T08:32:12;94907.53;;;9.62;77.85
42001;BME280;27689;48.390;10.856;2023-04-01T08:35:21;94912.28;;;9.59;77.33
42001;BME280;27689;48.390;10.856;2023-04-01T08:38:12;94899.31;;;9.65;77.16
42001;BME280;27689;48.390;10.856;2023-04-01T08:41:21;94917.75;;;9.72;76.65
42001;BME280;27689;48.390;10.856;2023-04-01T08:57:21;94897.06;;;9.93;76.21
42001;BME280;27689;48.390;10.856;2023-04-01T09:00:31;94903.53;;;10.05;76.53
42001;BME280;27689;48.390;10.856;2023-04-01T09:06:25;94889.09;;;10.09;76.42
42001;BME280;27689;48.390;10.856;2023-04-01T09:09:27;94889.75;;;10.11;74.33
42001;BME280;27689;48.390;10.856;2023-04-01T09:18:37;94881.97;;;10.26;74.30
42001;BME280;27689;48.390;10.856;2023-04-01T09:21:53;94892.00;;;10.22;74.66
42001;BME280;27689;48.390;10.856;2023-04-01T09:25:09;94886.13;;;10.20;74.54
42001;BME280;27689;48.390;10.856;2023-04-01T09:46:20;94881.13;;;10.34;76.12
42001;BME280;27689;48.390;10.856;2023-04-01T09:55:15;94882.16;;;10.47;75.43
42001;BME280;27689;48.390;10.856;2023-04-01T10:01:42;94883.78;;;10.25;74.64
42001;BME280;27689;48.390;10.856;2023-04-01T10:08:39;94885.78;;;10.23;80.32
42001;BME280;27689;48.390;10.856;2023-04-01T10:20:59;94900.59;;;10.00;85.18
42001;BME280;27689;48.390;10.856;2023-04-01T10:24:07;94906.88;;;9.91;85.89
42001;BME280;27689;48.390;10.856;2023-04-01T10:36:37;94898.50;;;9.26;86.74
42001;BME280;27689;48.390;10.856;2023-04-01T10:48:51;94923.91;;;9.01;93.65
42001;BME280;27689;48.390;10.856;2023-04-01T11:01:16;94935.00;;;8.46;98.57
42001;BME280;27689;48.390;10.856;2023-04-01T11:04:13;94917.56;;;8.46;99.29
42001;BME280;27689;48.390;10.856;2023-04-01T11:07:51;94921.50;;;8.42;98.48
42001;BME280;27689;48.390;10.856;2023-04-01T11:20:55;94919.63;;;8.19;100.00
42001;BME280;27689;48.390;10.856;2023-04-01T11:36:15;94915.41;;;8.09;100.00
42001;BME280;27689;48.390;10.856;2023-04-01T11:42:26;94911.50;;;8.22;100.00
42001;BME280;27689;48.390;10.856;2023-04-01T11:57:56;94929.47;;;8.49;99.56
42001;BME280;27689;48.390;10.856;2023-04-01T12:01:14;94928.84;;;8.55;100.00
42001;BME280;27689;48.390;10.856;2023-04-01T12:07:45;94928.00;;;8.63;100.00
42001;BME280;27689;48.390;10.856;2023-04-01T12:13:59;94937.63;;;8.62;100.00
42001;BME280;27689;48.390;10.856;2023-04-01T12:23:50;94952.16;;;8.81;100.00
42001;BME280;27689;48.390;10.856;2023-04-01T12:45:12;94940.91;;;8.72;100.00
42001;BME280;27689;48.390;10.856;2023-04-01T13:19:19;94932.38;;;9.03;100.00
42001;BME280;27689;48.390;10.856;2023-04-01T13:22:39;94942.81;;;9.03;100.00
42001;BME280;27689;48.390;10.856;2023-04-01T13:29:04;94943.25;;;9.23;99.66
42001;BME280;27689;48.390;10.856;2023-04-01T13:35:20;94947.50;;;9.32;98.90
42001;BME280;27689;48.390;10.856;2023-04-01T13:38:39;94941.78;;;9.28;97.02
42001;BME280;27689;48.390;10.856;2023-04-01T13:41:43;94959.38;;;9.42;96.92
42001;BME280;27689;48.390;10.856;2023-04-01T13:57:59;94945.22;;;9.76;94.23
42001;BME280;27689;48.390;10.856;2023-04-01T14:01:04;94954.22;;;9.73;96.52
42001;BME280;27689;48.390;10.856;2023-04-01T14:07:18;94957.25;;;9.93;92.26
42001;BME280;27689;48.390;10.856;2023-04-01T14:10:12;94947.53;;;10.02;92.48
42001;BME280;27689;48.390;10.856;2023-04-01T14:16:55;94952.94;;;10.00;92.80
42001;BME280;27689;48.390;10.856;2023-04-01T14:23:14;94952.50;;;9.88;96.78
42001;BME280;27689;48.390;10.856;2023-04-01T14:35:50;94959.56;;;9.80;99.68
42001;BME280;27689;48.390;10.856;2023-04-01T14:52:10;94973.00;;;9.77;98.93
42001;BME280;27689;48.390;10.856;2023-04-01T14:55:03;94959.28;;;9.75;99.34
42001;BME280;27689;48.390;10.856;2023-04-01T14:58:09;94963.63;;;9.82;97.28
42001;BME280;27689;48.390;10.856;2023-04-01T15:16:02;94963.97;;;9.87;94.19
42001;BME280;27689;48.390;10.856;2023-04-01T15:28:42;94970.09;;;10.03;89.33
42001;BME280;27689;48.390;10.856;2023-04-01T15:35:30;94987.59;;;10.02;87.86
42001;BME280;27689;48.390;10.856;2023-04-01T15:38:32;94985.47;;;9.98;88.20
42001;BME280;27689;48.390;10.856;2023-04-01T15:44:59;94990.28;;;9.86;87.55
42001;BME280;27689;48.390;10.856;2023-04-01T15:48:01;94988.31;;;9.88;87.62
42001;BME280;27689;48.390;10.856;2023-04-01T16:02:48;94994.03;;;9.83;86.04
42001;BME280;27689;48.390;10.856;2023-04-01T16:05:55;94997.00;;;9.80;86.08
42001;BME280;27689;48.390;10.856;2023-04-01T16:11:47;95002.75;;;9.76;86.33
42001;BME280;27689;48.390;10.856;2023-04-01T16:21:52;95005.03;;;9.71;85.42
42001;BME280;27689;48.390;10.856;2023-04-01T16:24:53;95009.25;;;9.80;85.65
42001;BME280;27689;48.390;10.856;2023-04-01T16:27:54;94999.81;;;9.79;84.98
42001;BME280;27689;48.390;10.856;2023-04-01T16:30:57;95003.41;;;9.70;85.30
42001;BME280;27689;48.390;10.856;2023-04-01T16:40:24;95017.13;;;9.72;86.19
42001;BME280;27689;48.390;10.856;2023-04-01T16:43:35;95008.69;;;9.62;87.21
42001;BME280;27689;48.390;10.856;2023-04-01T16:46:44;95016.84;;;9.59;86.42
42001;BME280;27689;48.390;10.856;2023-04-01T16:49:49;95011.16;;;9.47;87.87
42001;BME280;27689;48.390;10.856;2023-04-01T16:56:07;95022.09;;;9.59;87.25
42001;BME280;27689;48.390;10.856;2023-04-01T16:59:13;95022.28;;;9.49;87.52
42001;BME280;27689;48.390;10.856;2023-04-01T17:10:56;95031.44;;;9.45;87.05
42001;BME280;27689;48.390;10.856;2023-04-01T17:13:50;95034.53;;;9.48;86.84
42001;BME280;27689;48.390;10.856;2023-04-01T17:17:05;95034.88;;;9.29;87.92
42001;BME280;27689;48.390;10.856;2023-04-01T17:25:53;95041.25;;;9.27;88.15
42001;BME280;27689;48.390;10.856;2023-04-01T17:28:50;95041.59;;;9.32;88.39
42001;BME280;27689;48.390;10.856;2023-04-01T17:31:46;95047.31;;;9.19;88.88
42001;BME280;27689;48.390;10.856;2023-04-01T17:46:54;95059.72;;;9.17;91.20
42001;BME280;27689;48.390;10.856;2023-04-01T17:53:15;95070.84;;;9.19;91.15
42001;BME280;27689;48.390;10.856;2023-04-01T17:56:09;95068.69;;;9.06;91.81
42001;BME280;27689;48.390;10.856;2023-04-01T18:02:21;95077.19;;;9.00;91.98
42001;BME280;27689;48.390;10.856;2023-04-01T18:11:34;95079.47;;;8.87;92.41
42001;BME280;27689;48.390;10.856;2023-04-01T18:14:41;95086.13;;;8.81;92.90
42001;BME280;27689;48.390;10.856;2023-04-01T18:18:02;95086.47;;;8.78;92.40
42001;BME280;27689;48.390;10.856;2023-04-01T18:21:01;95088.41;;;8.68;93.05
42001;BME280;27689;48.390;10.856;2023-04-01T18:23:51;95099.34;;;8.72;92.90
42001;BME280;27689;48.390;10.856;2023-04-01T18:26:39;95101.16;;;8.79;91.67
42001;BME280;27689;48.390;10.856;2023-04-01T18:29:36;95105.06;;;8.75;92.10
42001;BME280;27689;48.390;10.856;2023-04-01T18:32:24;95096.91;;;8.78;92.00
42001;BME280;27689;48.390;10.856;2023-04-01T18:38:12;95098.53;;;8.71;91.92
42001;BME280;27689;48.390;10.856;2023-04-01T18:42:15;95108.00;;;8.72;91.91
42001;BME280;27689;48.390;10.856;2023-04-01T18:44:46;95113.84;;;8.66;91.81
42001;BME280;27689;48.390;10.856;2023-04-01T18:47:44;95115.19;;;8.70;91.55
42001;BME280;27689;48.390;10.856;2023-04-01T18:50:41;95126.91;;;8.66;91.69
42001;BME280;27689;48.390;10.856;2023-04-01T18:56:50;95137.00;;;8.61;91.67
42001;BME280;27689;48.390;10.856;2023-04-01T18:59:41;95138.38;;;8.73;90.05
42001;BME280;27689;48.390;10.856;2023-04-01T19:02:39;95143.06;;;8.70;90.46
42001;BME280;27689;48.390;10.856;2023-04-01T19:05:34;95144.22;;;8.67;90.54
42001;BME280;27689;48.390;10.856;2023-04-01T19:11:33;95156.81;;;8.80;88.37
42001;BME280;27689;48.390;10.856;2023-04-01T19:14:35;95151.06;;;8.68;89.00
42001;BME280;27689;48.390;10.856;2023-04-01T19:20:47;95153.06;;;8.74;88.46
42001;BME280;27689;48.390;10.856;2023-04-01T19:38:31;95164.91;;;8.61;90.23
42001;BME280;27689;48.390;10.856;2023-04-01T19:47:35;95171.75;;;8.62;90.01
42001;BME280;27689;48.390;10.856;2023-04-01T19:56:18;95171.75;;;8.54;90.73
42001;BME280;27689;48.390;10.856;2023-04-01T19:59:23;95166.97;;;8.49;91.10
42001;BME280;27689;48.390;10.856;2023-04-01T20:05:03;95177.72;;;8.46;91.09
42001;BME280;27689;48.390;10.856;2023-04-01T20:07:52;95179.06;;;8.50;90.78
42001;BME280;27689;48.390;10.856;2023-04-01T20:11:01;95186.38;;;8.46;90.70
42001;BME280;27689;48.390;10.856;2023-04-01T20:14:12;95188.00;;;8.39;91.68
42001;BME280;27689;48.390;10.856;2023-04-01T20:20:15;95191.13;;;8.43;91.53
42001;BME280;27689;48.390;10.856;2023-04-01T20:23:16;95189.47;;;8.42;91.36
42001;BME280;27689;48.390;10.856;2023-04-01T20:26:11;95194.38;;;8.45;91.39
42001;BME280;27689;48.390;10.856;2023-04-01T20:32:32;95191.50;;;8.30;92.25
42001;BME280;27689;48.390;10.856;2023-04-01T20:35:36;95186.28;;;8.30;91.47
42001;BME280;27689;48.390;10.856;2023-04-01T20:44:41;95208.34;;;8.36;91.98
42001;BME280;27689;48.390;10.856;2023-04-01T20:50:29;95211.19;;;8.25;92.39
42001;BME280;27689;48.390;10.856;2023-04-01T20:53:19;95207.91;;;8.14;93.53
42001;BME280;27689;48.390;10.856;2023-04-01T21:11:44;95223.69;;;8.13;94.14
42001;BME280;27689;48.390;10.856;2023-04-01T21:17:49;95235.03;;;8.04;94.46
42001;BME280;27689;48.390;10.856;2023-04-01T21:21:10;95234.88;;;8.05;94.38
42001;BME280;27689;48.390;10.856;2023-04-01T21:31:22;95254.84;;;8.14;94.52
42001;BME280;27689;48.390;10.856;2023-04-01T21:37:18;95251.66;;;8.03;95.08
42001;BME280;27689;48.390;10.856;2023-04-01T21:46:35;95258.75;;;7.93;95.74
42001;BME280;27689;48.390;10.856;2023-04-01T21:52:29;95267.34;;;7.85;96.78
42001;BME280;27689;48.390;10.856;2023-04-01T21:58:30;95275.31;;;7.66;
42001;BME280;27689;48.390;10.856;2023-04-01T22:07:23;95282.41;;;7.56;98.94
42001;BME280;27689;48.390;10.856;2023-04-01T22:13:32;95294.53;;;7.47;99.87
42001;BME280;27689;48.390;10.856;2023-04-01T22:19:24;95288.44;;;7.56;98.89
42001;BME280;27689;48.390;10.856;2023-04-01T22:22:18;95285.00;;;7.56;99.32
42001;BME280;27689;48.390;10.856;2023-04-01T22:25:14;95293.13;;;7.53;99.60
42001;BME280;27689;48.390;10.856;2023-04-01T22:28:12;95298.19;;;7.54;99.22
42001;BME280;27689;48.390;10.856;2023-04-01T22:31:02;95297.41;;;7.44;99.97
42001;BME280;27689;48.390;10.856;2023-04-01T22:40:46;95290.66;;;7.33;100.00
42001;BME280;27689;48.390;10.856;2023-04-01T22:46:25;95286.31;;;7.24;100.00
42001;BME280;27689;48.390;10.856;2023-04-01T22:49:38;95293.75;;;7.19;100.00
42001;BME280;27689;48.390;10.856;2023-04-01T22:55:21;95296.13;;;7.30;100.00
42001;BME280;27689;48.390;10.856;2023-04-01T22:58:12;95301.00;;;7.25;100.00
42001;BME280;27689;48.390;10.856;2023-04-01T23:01:06;95299.84;;;7.28;100.00
42001;BME280;27689;48.390;10.856;2023-04-01T23:03:51;95300.03;;;7.26;100.00
42001;BME280;27689;48.390;10.856;2023-04-01T23:06:39;95298.66;;;7.22;100.00
42001;BME280;27689;48.390;10.856;2023-04-01T23:09:37;95308.50;;;7.28;100.00
42001;BME280;27689;48.390;10.856;2023-04-01T23:12:21;95303.59;;;7.25;100.00
42001;BME280;27689;48.390;10.856;2023-04-01T23:15:13;95302.03;;;7.32;100.00
42001;BME280;27689;48.390;10.856;2023-04-01T23:18:24;95310.38;;;7.36;100.00
42001;BME280;27689;48.390;10.856;2023-04-01T23:21:35;95310.53;;;7.34;100.00
42001;BME280;27689;48.390;10.856;2023-04-01T23:27:37;95326.44;;;7.31;100.00
42001;BME280;27689;48.390;10.856;2023-04-01T23:33:26;95325.09;;;7.27;100.00
42001;BME280;27689;48.390;10.856;2023-04-01T23:36:14;95321.22;;;7.31;100.00
42001;BME280;27689;48.390;10.856;2023-04-01T23:39:05;95316.84;;;7.32;100.00
42001;BME280;27689;48.390;10.856;2023-04-01T23:41:54;95328.38;;;7.29;100.00
42001;BME280;27689;48.390;10.856;2023-04-01T23:44:39;95320.03;;;7.26;100.00
42001;BME280;27689;48.390;10.856;2023-04-01T23:47:28;95325.88;;;7.37;99.86
42001;BME280;27689;48.390;10.856;2023-04-01T23:50:23;95331.22;;;7.36;100.00
42001;BME280;27689;48.390;10.856;2023-04-01T23:53:56;95331.44;;;7.42;99.66
42001;BME280;27689;48.390;10.856;2023-04-01T23:56:20;95329.44;;;7.36;99.94
42001;BME280;27689;48.390;10.856;2023-04-01T23:59:14;95330.19;;;7.47;99.61
